createdAt,value
2016-11-05T00:00:31.550Z,0
2016-11-05T00:01:40.275Z,0
2016-11-05T00:02:48.958Z,0
2016-11-05T00:03:57.645Z,0
2016-11-05T00:05:06.336Z,0
2016-11-05T00:06:15.026Z,0
2016-11-05T00:07:23.713Z,0
2016-11-05T00:08:32.399Z,0
2016-11-05T00:09:41.089Z,0
2016-11-05T00:10:49.774Z,0
2016-11-05T00:11:58.465Z,0
2016-11-05T00:13:07.158Z,0
2016-11-05T00:14:15.853Z,0
2016-11-05T00:15:24.538Z,0
2016-11-05T00:16:33.265Z,0
2016-11-05T00:17:41.951Z,0
2016-11-05T00:18:50.635Z,0
2016-11-05T00:19:59.326Z,0
2016-11-05T00:21:08.015Z,0
2016-11-05T00:22:16.709Z,0
2016-11-05T00:23:25.437Z,0
2016-11-05T00:24:34.155Z,0
2016-11-05T00:25:42.842Z,0
2016-11-05T00:26:51.530Z,0
2016-11-05T00:28:00.219Z,0
2016-11-05T00:29:09.219Z,0
2016-11-05T00:30:17.945Z,0
2016-11-05T00:31:26.636Z,0
2016-11-05T00:32:35.322Z,0
2016-11-05T00:33:44.008Z,0
2016-11-05T00:34:52.698Z,0
2016-11-05T00:36:01.384Z,0
2016-11-05T00:37:10.069Z,0
2016-11-05T00:38:18.811Z,0
2016-11-05T00:39:27.846Z,0
2016-11-05T00:40:36.532Z,0
2016-11-05T00:41:45.222Z,0
2016-11-05T00:42:53.909Z,0
2016-11-05T00:44:02.603Z,0
2016-11-05T00:45:11.294Z,0
2016-11-05T00:46:19.983Z,0
2016-11-05T00:47:28.671Z,0
2016-11-05T00:48:37.359Z,0
2016-11-05T00:49:46.049Z,0
2016-11-05T00:50:54.737Z,0
2016-11-05T00:52:03.432Z,0
2016-11-05T00:53:12.149Z,0
2016-11-05T00:54:20.862Z,0
2016-11-05T00:55:29.555Z,0
2016-11-05T00:56:38.240Z,0
2016-11-05T00:57:46.926Z,0
2016-11-05T00:58:55.618Z,0
2016-11-05T01:00:04.620Z,0
2016-11-05T01:01:13.312Z,0
2016-11-05T01:02:22.001Z,0
2016-11-05T01:03:30.728Z,0
2016-11-05T01:04:39.448Z,0
2016-11-05T01:05:48.179Z,0
2016-11-05T01:06:56.869Z,0
2016-11-05T01:08:05.555Z,0
2016-11-05T01:09:14.247Z,0
2016-11-05T01:10:22.976Z,0
2016-11-05T01:11:31.672Z,0
2016-11-05T01:12:40.360Z,0
2016-11-05T01:13:49.053Z,0
2016-11-05T01:14:57.769Z,0
2016-11-05T01:16:06.457Z,0
2016-11-05T01:17:15.157Z,0
2016-11-05T01:18:23.847Z,0
2016-11-05T01:19:32.534Z,0
2016-11-05T01:20:41.221Z,0
2016-11-05T01:21:49.907Z,0
2016-11-05T01:22:58.605Z,0
2016-11-05T01:24:07.298Z,0
2016-11-05T01:25:15.984Z,0
2016-11-05T01:26:24.713Z,0
2016-11-05T01:27:33.410Z,0
2016-11-05T01:28:42.097Z,0
2016-11-05T01:29:50.786Z,0
2016-11-05T01:30:59.478Z,0
2016-11-05T01:32:08.187Z,0
2016-11-05T01:33:16.875Z,0
2016-11-05T01:34:25.560Z,0
2016-11-05T01:35:34.251Z,0
2016-11-05T01:36:42.938Z,0
2016-11-05T01:37:51.623Z,0
2016-11-05T01:39:00.625Z,0
2016-11-05T01:40:09.315Z,0
2016-11-05T01:41:18.014Z,0
2016-11-05T01:42:26.701Z,0
2016-11-05T01:43:35.394Z,0
2016-11-05T01:44:44.080Z,0
2016-11-05T01:45:52.773Z,0
2016-11-05T01:47:01.459Z,0
2016-11-05T01:48:10.147Z,0
2016-11-05T01:49:18.831Z,0
2016-11-05T01:50:27.547Z,0
2016-11-05T01:51:36.237Z,0
2016-11-05T01:52:45.033Z,0
2016-11-05T01:53:54.035Z,0
2016-11-05T01:55:02.725Z,0
2016-11-05T01:56:11.447Z,0
2016-11-05T01:57:20.137Z,0
2016-11-05T01:58:28.828Z,0
2016-11-05T01:59:37.521Z,0
2016-11-05T02:00:46.205Z,0
2016-11-05T02:01:54.896Z,0
2016-11-05T02:03:03.579Z,0
2016-11-05T02:04:12.270Z,0
2016-11-05T02:05:20.962Z,0
2016-11-05T02:06:29.647Z,0
2016-11-05T02:07:38.338Z,0
2016-11-05T02:08:47.026Z,0
2016-11-05T02:09:55.715Z,0
2016-11-05T02:11:04.401Z,0
2016-11-05T02:12:13.090Z,0
2016-11-05T02:13:21.815Z,0
2016-11-05T02:14:30.531Z,0
2016-11-05T02:15:39.231Z,0
2016-11-05T02:16:47.912Z,0
2016-11-05T02:17:56.601Z,0
2016-11-05T02:19:05.322Z,0
2016-11-05T02:20:14.007Z,0
2016-11-05T02:21:22.705Z,0
2016-11-05T02:22:31.392Z,0
2016-11-05T02:23:40.079Z,0
2016-11-05T02:24:48.771Z,0
2016-11-05T02:25:57.471Z,0
2016-11-05T02:27:06.160Z,0
2016-11-05T02:28:14.858Z,0
2016-11-05T02:29:23.545Z,0
2016-11-05T02:30:32.231Z,0
2016-11-05T02:31:40.913Z,0
2016-11-05T02:32:49.602Z,0
2016-11-05T02:33:58.289Z,0
2016-11-05T02:35:06.972Z,0
2016-11-05T02:36:15.657Z,0
2016-11-05T02:37:24.342Z,0
2016-11-05T02:38:33.026Z,0
2016-11-05T02:39:41.708Z,0
2016-11-05T02:40:50.403Z,0
2016-11-05T02:41:59.095Z,0
2016-11-05T02:43:07.799Z,0
2016-11-05T02:44:16.800Z,0
2016-11-05T02:45:25.490Z,0
2016-11-05T02:46:34.181Z,0
2016-11-05T02:47:42.870Z,0
2016-11-05T02:48:51.591Z,0
2016-11-05T02:50:00.287Z,0
2016-11-05T02:51:08.977Z,0
2016-11-05T02:52:17.665Z,0
2016-11-05T02:53:26.397Z,0
2016-11-05T02:54:35.085Z,0
2016-11-05T02:55:43.772Z,0
2016-11-05T02:56:52.468Z,0
2016-11-05T02:58:01.156Z,0
2016-11-05T02:59:09.842Z,0
2016-11-05T03:00:18.533Z,0
2016-11-05T03:01:27.256Z,0
2016-11-05T03:02:35.947Z,0
2016-11-05T03:03:44.641Z,0
2016-11-05T03:04:53.336Z,0
2016-11-05T03:06:02.018Z,0
2016-11-05T03:07:10.712Z,0
2016-11-05T03:08:19.402Z,0
2016-11-05T03:09:28.088Z,0
2016-11-05T03:10:36.775Z,0
2016-11-05T03:11:45.465Z,0
2016-11-05T03:12:54.154Z,0
2016-11-05T03:14:02.878Z,0
2016-11-05T03:15:11.565Z,0
2016-11-05T03:16:20.262Z,0
2016-11-05T03:17:28.975Z,0
2016-11-05T03:18:37.660Z,0
2016-11-05T03:19:46.379Z,0
2016-11-05T03:20:55.063Z,0
2016-11-05T03:22:03.783Z,0
2016-11-05T03:23:12.476Z,0
2016-11-05T03:24:21.165Z,0
2016-11-05T03:25:29.863Z,0
2016-11-05T03:26:38.555Z,0
2016-11-05T03:27:47.240Z,0
2016-11-05T03:28:55.926Z,0
2016-11-05T03:30:04.626Z,0
2016-11-05T03:31:13.313Z,0
2016-11-05T03:32:22.004Z,0
2016-11-05T03:33:30.693Z,0
2016-11-05T03:34:39.379Z,0
2016-11-05T03:35:48.067Z,0
2016-11-05T03:36:56.763Z,0
2016-11-05T03:38:05.488Z,0
2016-11-05T03:39:14.215Z,0
2016-11-05T03:40:22.912Z,0
2016-11-05T03:41:31.600Z,0
2016-11-05T03:42:40.287Z,0
2016-11-05T03:43:49.012Z,0
2016-11-05T03:44:57.698Z,0
2016-11-05T03:46:06.383Z,0
2016-11-05T03:47:15.074Z,0
2016-11-05T03:48:23.765Z,0
2016-11-05T03:49:32.491Z,0
2016-11-05T03:50:41.178Z,0
2016-11-05T03:51:49.870Z,0
2016-11-05T03:52:58.555Z,0
2016-11-05T03:54:07.242Z,0
2016-11-05T03:55:15.928Z,0
2016-11-05T03:56:24.610Z,0
2016-11-05T03:57:33.295Z,0
2016-11-05T03:58:41.980Z,0
2016-11-05T03:59:50.667Z,0
2016-11-05T04:00:59.356Z,0
2016-11-05T04:02:08.047Z,0
2016-11-05T04:03:16.737Z,0
2016-11-05T04:04:25.422Z,0
2016-11-05T04:05:34.109Z,0
2016-11-05T04:06:42.800Z,0
2016-11-05T04:07:51.492Z,0
2016-11-05T04:09:00.178Z,0
2016-11-05T04:10:08.866Z,0
2016-11-05T04:11:17.557Z,0
2016-11-05T04:12:26.244Z,0
2016-11-05T04:13:34.931Z,0
2016-11-05T04:14:43.681Z,0
2016-11-05T04:15:52.368Z,0
2016-11-05T04:17:01.056Z,0
2016-11-05T04:18:10.056Z,0
2016-11-05T04:19:18.751Z,0
2016-11-05T04:20:27.434Z,0
2016-11-05T04:21:36.129Z,0
2016-11-05T04:22:44.816Z,0
2016-11-05T04:23:53.503Z,0
2016-11-05T04:25:02.193Z,0
2016-11-05T04:26:10.885Z,0
2016-11-05T04:27:19.576Z,0
2016-11-05T04:28:28.262Z,0
2016-11-05T04:29:36.946Z,0
2016-11-05T04:30:45.636Z,0
2016-11-05T04:31:54.319Z,0
2016-11-05T04:33:03.322Z,0
2016-11-05T04:34:12.015Z,0
2016-11-05T04:35:20.711Z,0
2016-11-05T04:36:29.399Z,0
2016-11-05T04:37:38.091Z,0
2016-11-05T04:38:46.827Z,0
2016-11-05T04:39:55.515Z,0
2016-11-05T04:41:04.204Z,0
2016-11-05T04:42:12.889Z,0
2016-11-05T04:43:21.580Z,0
2016-11-05T04:44:30.267Z,0
2016-11-05T04:45:38.994Z,0
2016-11-05T04:46:47.684Z,0
2016-11-05T04:47:56.374Z,0
2016-11-05T04:49:05.062Z,0
2016-11-05T04:50:13.756Z,0
2016-11-05T04:51:22.443Z,0
2016-11-05T04:52:31.129Z,0
2016-11-05T04:53:39.857Z,0
2016-11-05T04:54:48.558Z,0
2016-11-05T04:55:57.244Z,0
2016-11-05T04:57:05.929Z,0
2016-11-05T04:58:14.622Z,0
2016-11-05T04:59:23.316Z,0
2016-11-05T05:00:32.036Z,0
2016-11-05T05:01:40.756Z,0
2016-11-05T05:02:49.481Z,0
2016-11-05T05:03:58.169Z,0
2016-11-05T05:05:06.873Z,0
2016-11-05T05:06:15.558Z,0
2016-11-05T05:07:24.274Z,0
2016-11-05T05:08:32.962Z,0
2016-11-05T05:09:41.669Z,0
2016-11-05T05:10:50.675Z,0
2016-11-05T05:11:59.359Z,0
2016-11-05T05:13:08.050Z,0
2016-11-05T05:14:16.736Z,0
2016-11-05T05:15:25.426Z,0
2016-11-05T05:16:34.115Z,0
2016-11-05T05:17:42.801Z,0
2016-11-05T05:18:51.488Z,0
2016-11-05T05:20:00.172Z,0
2016-11-05T05:21:09.179Z,0
2016-11-05T05:22:17.865Z,0
2016-11-05T05:23:26.555Z,0
2016-11-05T05:24:35.272Z,0
2016-11-05T05:25:43.965Z,0
2016-11-05T05:26:52.659Z,0
2016-11-05T05:28:01.342Z,0
2016-11-05T05:29:10.036Z,0
2016-11-05T05:30:18.727Z,0
2016-11-05T05:31:27.422Z,0
2016-11-05T05:32:36.115Z,0
2016-11-05T05:33:44.802Z,0
2016-11-05T05:34:53.492Z,0
2016-11-05T05:36:02.181Z,0
2016-11-05T05:37:10.865Z,0
2016-11-05T05:38:19.557Z,0
2016-11-05T05:39:28.246Z,0
2016-11-05T05:40:36.936Z,0
2016-11-05T05:41:45.677Z,0
2016-11-05T05:42:54.375Z,0
2016-11-05T05:44:03.101Z,0
2016-11-05T05:45:11.787Z,0
2016-11-05T05:46:20.483Z,0
2016-11-05T05:47:29.178Z,0
2016-11-05T05:48:37.862Z,0
2016-11-05T05:49:46.582Z,0
2016-11-05T05:50:55.274Z,0
2016-11-05T05:52:03.959Z,0
2016-11-05T05:53:12.683Z,0
2016-11-05T05:54:21.370Z,0
2016-11-05T05:55:30.057Z,0
2016-11-05T05:56:38.747Z,0
2016-11-05T05:57:47.433Z,0
2016-11-05T05:58:56.116Z,0
2016-11-05T06:00:05.124Z,0
2016-11-05T06:01:13.818Z,0
2016-11-05T06:02:22.506Z,0
2016-11-05T06:03:31.193Z,0
2016-11-05T06:04:39.884Z,0
2016-11-05T06:05:48.892Z,0
2016-11-05T06:06:57.583Z,0
2016-11-05T06:08:06.307Z,0
2016-11-05T06:09:14.992Z,0
2016-11-05T06:10:23.687Z,0
2016-11-05T06:11:32.370Z,0
2016-11-05T06:12:41.101Z,0
2016-11-05T06:13:49.787Z,0
2016-11-05T06:14:58.467Z,0
2016-11-05T06:16:07.159Z,0
2016-11-05T06:17:15.848Z,0
2016-11-05T06:18:24.535Z,0
2016-11-05T06:19:33.229Z,0
2016-11-05T06:20:41.919Z,0
2016-11-05T06:21:50.607Z,0
2016-11-05T06:22:59.295Z,0
2016-11-05T06:24:07.984Z,0
2016-11-05T06:25:16.665Z,0
2016-11-05T06:26:25.354Z,0
2016-11-05T06:27:34.043Z,0
2016-11-05T06:28:42.736Z,0
2016-11-05T06:29:51.421Z,0
2016-11-05T06:31:00.111Z,0
2016-11-05T06:32:08.801Z,0
2016-11-05T06:33:17.487Z,0
2016-11-05T06:34:26.492Z,0
2016-11-05T06:35:35.179Z,0
2016-11-05T06:36:43.866Z,0
2016-11-05T06:37:52.553Z,0
2016-11-05T06:39:01.245Z,0
2016-11-05T06:40:09.932Z,0
2016-11-05T06:41:18.619Z,0
2016-11-05T06:42:27.307Z,0
2016-11-05T06:43:36.035Z,0
2016-11-05T06:44:44.730Z,0
2016-11-05T06:45:53.421Z,0
2016-11-05T06:47:02.157Z,0
2016-11-05T06:48:10.843Z,0
2016-11-05T06:49:19.539Z,0
2016-11-05T06:50:28.228Z,0
2016-11-05T06:51:36.916Z,5
2016-11-05T06:52:45.603Z,5
2016-11-05T06:53:54.294Z,5
2016-11-05T06:55:02.982Z,5
2016-11-05T06:56:11.672Z,5
2016-11-05T06:57:20.363Z,5
2016-11-05T06:58:29.086Z,5
2016-11-05T06:59:37.770Z,5
2016-11-05T07:00:46.465Z,5
2016-11-05T07:01:55.156Z,5
2016-11-05T07:03:04.158Z,5
2016-11-05T07:04:12.844Z,5
2016-11-05T07:05:21.536Z,5
2016-11-05T07:06:30.241Z,10
2016-11-05T07:07:38.930Z,5
2016-11-05T07:08:47.616Z,10
2016-11-05T07:09:56.309Z,10
2016-11-05T07:11:04.997Z,10
2016-11-05T07:12:13.685Z,10
2016-11-05T07:13:22.370Z,10
2016-11-05T07:14:31.063Z,10
2016-11-05T07:15:39.779Z,10
2016-11-05T07:16:48.466Z,10
2016-11-05T07:17:57.155Z,10
2016-11-05T07:19:05.847Z,15
2016-11-05T07:20:14.531Z,15
2016-11-05T07:21:23.230Z,15
2016-11-05T07:22:31.924Z,15
2016-11-05T07:23:40.613Z,15
2016-11-05T07:24:49.301Z,15
2016-11-05T07:25:57.991Z,15
2016-11-05T07:27:06.713Z,15
2016-11-05T07:28:15.401Z,15
2016-11-05T07:29:24.091Z,15
2016-11-05T07:30:32.784Z,20
2016-11-05T07:31:41.501Z,20
2016-11-05T07:32:50.189Z,20
2016-11-05T07:33:58.871Z,20
2016-11-05T07:35:07.557Z,25
2016-11-05T07:36:16.274Z,25
2016-11-05T07:37:24.962Z,25
2016-11-05T07:38:33.693Z,25
2016-11-05T07:39:42.390Z,30
2016-11-05T07:40:51.075Z,30
2016-11-05T07:41:59.787Z,30
2016-11-05T07:43:08.474Z,35
2016-11-05T07:44:17.165Z,35
2016-11-05T07:45:26.198Z,35
2016-11-05T07:46:34.881Z,40
2016-11-05T07:47:43.567Z,45
2016-11-05T07:48:52.294Z,40
2016-11-05T07:50:00.977Z,45
2016-11-05T07:51:09.669Z,50
2016-11-05T07:52:18.363Z,55
2016-11-05T07:53:27.056Z,50
2016-11-05T07:54:35.742Z,55
2016-11-05T07:55:44.430Z,55
2016-11-05T07:56:53.152Z,55
2016-11-05T07:58:01.842Z,55
2016-11-05T07:59:10.533Z,55
2016-11-05T08:00:19.220Z,55
2016-11-05T08:01:27.904Z,60
2016-11-05T08:02:36.588Z,60
2016-11-05T08:03:45.277Z,55
2016-11-05T08:04:54.283Z,55
2016-11-05T08:06:02.974Z,60
2016-11-05T08:07:11.670Z,60
2016-11-05T08:08:20.359Z,60
2016-11-05T08:09:29.046Z,60
2016-11-05T08:10:37.735Z,65
2016-11-05T08:11:46.424Z,65
2016-11-05T08:12:55.109Z,65
2016-11-05T08:14:03.795Z,70
2016-11-05T08:15:12.483Z,70
2016-11-05T08:16:21.170Z,75
2016-11-05T08:17:29.855Z,75
2016-11-05T08:18:38.544Z,75
2016-11-05T08:19:47.232Z,75
2016-11-05T08:20:55.919Z,80
2016-11-05T08:22:04.608Z,80
2016-11-05T08:23:13.292Z,80
2016-11-05T08:24:21.981Z,80
2016-11-05T08:25:30.670Z,85
2016-11-05T08:26:39.387Z,85
2016-11-05T08:27:48.116Z,85
2016-11-05T08:28:56.806Z,90
2016-11-05T08:30:05.530Z,95
2016-11-05T08:31:14.216Z,100
2016-11-05T08:32:22.906Z,110
2016-11-05T08:33:31.609Z,110
2016-11-05T08:34:40.300Z,110
2016-11-05T08:35:49.023Z,110
2016-11-05T08:36:57.714Z,105
2016-11-05T08:38:06.400Z,120
2016-11-05T08:39:15.101Z,130
2016-11-05T08:40:23.785Z,125
2016-11-05T08:41:32.471Z,125
2016-11-05T08:42:41.172Z,125
2016-11-05T08:43:49.860Z,130
2016-11-05T08:44:58.553Z,120
2016-11-05T08:46:07.258Z,120
2016-11-05T08:47:15.949Z,120
2016-11-05T08:48:24.644Z,120
2016-11-05T08:49:33.333Z,130
2016-11-05T08:50:42.056Z,135
2016-11-05T08:51:50.744Z,140
2016-11-05T08:52:59.429Z,135
2016-11-05T08:54:08.155Z,140
2016-11-05T08:55:16.856Z,145
2016-11-05T08:56:25.547Z,135
2016-11-05T08:57:34.273Z,135
2016-11-05T08:58:42.962Z,145
2016-11-05T08:59:51.651Z,150
2016-11-05T09:01:00.345Z,150
2016-11-05T09:02:09.032Z,150
2016-11-05T09:03:17.722Z,155
2016-11-05T09:04:26.415Z,160
2016-11-05T09:05:35.103Z,165
2016-11-05T09:06:43.800Z,165
2016-11-05T09:07:52.499Z,175
2016-11-05T09:09:01.183Z,170
2016-11-05T09:10:09.875Z,175
2016-11-05T09:11:18.573Z,175
2016-11-05T09:12:27.263Z,170
2016-11-05T09:13:35.951Z,170
2016-11-05T09:14:44.642Z,175
2016-11-05T09:15:53.331Z,170
2016-11-05T09:17:02.021Z,170
2016-11-05T09:18:10.708Z,170
2016-11-05T09:19:19.401Z,165
2016-11-05T09:20:28.095Z,165
2016-11-05T09:21:36.820Z,165
2016-11-05T09:22:45.544Z,165
2016-11-05T09:23:54.244Z,165
2016-11-05T09:25:02.936Z,160
2016-11-05T09:26:11.629Z,160
2016-11-05T09:27:20.320Z,160
2016-11-05T09:28:29.044Z,160
2016-11-05T09:29:37.764Z,165
2016-11-05T09:30:46.455Z,170
2016-11-05T09:31:55.154Z,165
2016-11-05T09:33:03.842Z,170
2016-11-05T09:34:12.535Z,165
2016-11-05T09:35:21.221Z,160
2016-11-05T09:36:29.918Z,165
2016-11-05T09:37:38.610Z,165
2016-11-05T09:38:47.297Z,165
2016-11-05T09:39:55.983Z,160
2016-11-05T09:41:04.669Z,160
2016-11-05T09:42:13.358Z,155
2016-11-05T09:43:22.046Z,155
2016-11-05T09:44:30.770Z,150
2016-11-05T09:45:39.460Z,145
2016-11-05T09:46:48.161Z,140
2016-11-05T09:47:56.858Z,135
2016-11-05T09:49:05.572Z,135
2016-11-05T09:50:14.259Z,130
2016-11-05T09:51:22.951Z,130
2016-11-05T09:52:31.642Z,125
2016-11-05T09:53:40.534Z,125
2016-11-05T09:54:49.258Z,125
2016-11-05T09:55:57.947Z,130
2016-11-05T09:57:06.633Z,130
2016-11-05T09:58:15.329Z,120
2016-11-05T09:59:24.063Z,120
2016-11-05T10:00:32.753Z,120
2016-11-05T10:01:41.452Z,115
2016-11-05T10:02:50.139Z,125
2016-11-05T10:03:58.825Z,130
2016-11-05T10:05:07.515Z,125
2016-11-05T10:06:16.529Z,130
2016-11-05T10:07:25.260Z,135
2016-11-05T10:08:33.986Z,135
2016-11-05T10:09:42.675Z,140
2016-11-05T10:10:51.360Z,140
2016-11-05T10:12:00.054Z,135
2016-11-05T10:13:08.799Z,140
2016-11-05T10:14:17.495Z,140
2016-11-05T10:15:26.192Z,140
2016-11-05T10:16:34.888Z,160
2016-11-05T10:17:43.575Z,160
2016-11-05T10:18:52.278Z,155
2016-11-05T10:20:00.973Z,150
2016-11-05T10:21:09.661Z,145
2016-11-05T10:22:18.346Z,150
2016-11-05T10:23:27.043Z,140
2016-11-05T10:24:35.737Z,150
2016-11-05T10:25:44.429Z,155
2016-11-05T10:26:53.118Z,150
2016-11-05T10:28:01.809Z,155
2016-11-05T10:29:10.511Z,155
2016-11-05T10:30:19.205Z,160
2016-11-05T10:31:27.894Z,160
2016-11-05T10:32:36.619Z,160
2016-11-05T10:33:45.414Z,165
2016-11-05T10:34:54.102Z,165
2016-11-05T10:36:02.793Z,160
2016-11-05T10:37:11.499Z,150
2016-11-05T10:38:20.186Z,155
2016-11-05T10:39:28.876Z,150
2016-11-05T10:40:37.573Z,140
2016-11-05T10:41:46.260Z,135
2016-11-05T10:42:54.948Z,130
2016-11-05T10:44:03.637Z,140
2016-11-05T10:45:12.377Z,145
2016-11-05T10:46:21.077Z,145
2016-11-05T10:47:29.771Z,145
2016-11-05T10:48:38.460Z,140
2016-11-05T10:49:47.152Z,145
2016-11-05T10:50:55.845Z,150
2016-11-05T10:52:04.537Z,150
2016-11-05T10:53:13.257Z,155
2016-11-05T10:54:21.947Z,165
2016-11-05T10:55:30.640Z,170
2016-11-05T10:56:39.333Z,170
2016-11-05T10:57:48.022Z,175
2016-11-05T10:58:56.711Z,185
2016-11-05T11:00:05.402Z,180
2016-11-05T11:01:14.096Z,180
2016-11-05T11:02:22.783Z,175
2016-11-05T11:03:31.471Z,180
2016-11-05T11:04:40.162Z,180
2016-11-05T11:05:48.856Z,180
2016-11-05T11:06:57.574Z,195
2016-11-05T11:08:06.264Z,200
2016-11-05T11:09:14.963Z,210
2016-11-05T11:10:23.659Z,205
2016-11-05T11:11:32.674Z,205
2016-11-05T11:12:41.363Z,215
2016-11-05T11:13:50.052Z,220
2016-11-05T11:14:58.737Z,220
2016-11-05T11:16:07.432Z,225
2016-11-05T11:17:16.129Z,215
2016-11-05T11:18:24.816Z,205
2016-11-05T11:19:33.544Z,205
2016-11-05T11:20:42.274Z,195
2016-11-05T11:21:50.962Z,200
2016-11-05T11:22:59.654Z,180
2016-11-05T11:24:08.346Z,175
2016-11-05T11:25:17.037Z,180
2016-11-05T11:26:25.727Z,175
2016-11-05T11:27:34.419Z,170
2016-11-05T11:28:43.111Z,170
2016-11-05T11:29:51.801Z,185
2016-11-05T11:31:00.528Z,195
2016-11-05T11:32:09.226Z,200
2016-11-05T11:33:17.913Z,210
2016-11-05T11:34:26.601Z,205
2016-11-05T11:35:35.293Z,200
2016-11-05T11:36:43.986Z,195
2016-11-05T11:37:52.989Z,190
2016-11-05T11:39:01.684Z,195
2016-11-05T11:40:10.382Z,185
2016-11-05T11:41:19.080Z,190
2016-11-05T11:42:27.769Z,180
2016-11-05T11:43:36.490Z,185
2016-11-05T11:44:45.181Z,195
2016-11-05T11:45:53.872Z,180
2016-11-05T11:47:02.639Z,185
2016-11-05T11:48:11.331Z,185
2016-11-05T11:49:20.018Z,180
2016-11-05T11:50:28.727Z,200
2016-11-05T11:51:37.417Z,180
2016-11-05T11:52:46.107Z,180
2016-11-05T11:53:54.795Z,170
2016-11-05T11:55:03.488Z,170
2016-11-05T11:56:12.177Z,170
2016-11-05T11:57:20.874Z,155
2016-11-05T11:58:29.562Z,155
2016-11-05T11:59:38.252Z,150
2016-11-05T12:00:46.934Z,150
2016-11-05T12:01:55.628Z,150
2016-11-05T12:03:04.325Z,155
2016-11-05T12:04:13.017Z,155
2016-11-05T12:05:21.709Z,155
2016-11-05T12:06:30.400Z,155
2016-11-05T12:07:39.082Z,155
2016-11-05T12:08:47.806Z,160
2016-11-05T12:09:56.493Z,160
2016-11-05T12:11:05.547Z,150
2016-11-05T12:12:14.238Z,160
2016-11-05T12:13:22.926Z,160
2016-11-05T12:14:31.615Z,155
2016-11-05T12:15:40.300Z,150
2016-11-05T12:16:48.994Z,145
2016-11-05T12:17:57.682Z,150
2016-11-05T12:19:06.367Z,145
2016-11-05T12:20:15.061Z,145
2016-11-05T12:21:23.751Z,145
2016-11-05T12:22:32.441Z,145
2016-11-05T12:23:41.135Z,150
2016-11-05T12:24:49.822Z,155
2016-11-05T12:25:58.510Z,145
2016-11-05T12:27:07.202Z,150
2016-11-05T12:28:15.891Z,140
2016-11-05T12:29:24.580Z,135
2016-11-05T12:30:33.268Z,135
2016-11-05T12:31:41.958Z,130
2016-11-05T12:32:50.651Z,125
2016-11-05T12:33:59.376Z,120
2016-11-05T12:35:08.076Z,120
2016-11-05T12:36:16.793Z,125
2016-11-05T12:37:25.485Z,120
2016-11-05T12:38:34.178Z,120
2016-11-05T12:39:42.872Z,120
2016-11-05T12:40:51.562Z,115
2016-11-05T12:42:00.253Z,110
2016-11-05T12:43:08.947Z,115
2016-11-05T12:44:17.667Z,115
2016-11-05T12:45:26.384Z,115
2016-11-05T12:46:35.082Z,110
2016-11-05T12:47:43.772Z,110
2016-11-05T12:48:52.465Z,110
2016-11-05T12:50:01.191Z,115
2016-11-05T12:51:09.882Z,120
2016-11-05T12:52:18.572Z,115
2016-11-05T12:53:27.275Z,110
2016-11-05T12:54:35.970Z,110
2016-11-05T12:55:44.710Z,105
2016-11-05T12:56:53.398Z,110
2016-11-05T12:58:02.085Z,110
2016-11-05T12:59:11.113Z,105
2016-11-05T13:00:19.802Z,105
2016-11-05T13:01:28.491Z,100
2016-11-05T13:02:37.211Z,105
2016-11-05T13:03:45.902Z,105
2016-11-05T13:04:54.595Z,105
2016-11-05T13:06:03.306Z,105
2016-11-05T13:07:12.011Z,100
2016-11-05T13:08:20.711Z,100
2016-11-05T13:09:29.405Z,105
2016-11-05T13:10:38.128Z,110
2016-11-05T13:11:46.818Z,110
2016-11-05T13:12:55.504Z,105
2016-11-05T13:14:04.193Z,100
2016-11-05T13:15:12.885Z,105
2016-11-05T13:16:21.581Z,105
2016-11-05T13:17:30.279Z,105
2016-11-05T13:18:38.968Z,100
2016-11-05T13:19:47.767Z,95
2016-11-05T13:20:56.902Z,90
2016-11-05T13:22:05.687Z,95
2016-11-05T13:23:14.848Z,90
2016-11-05T13:24:23.638Z,95
2016-11-05T13:25:32.592Z,90
2016-11-05T13:26:41.397Z,90
2016-11-05T13:27:50.085Z,85
2016-11-05T13:28:58.802Z,90
2016-11-05T13:30:08.071Z,85
2016-11-05T13:31:17.093Z,80
2016-11-05T13:32:26.103Z,80
2016-11-05T13:33:34.798Z,80
2016-11-05T13:34:43.484Z,75
2016-11-05T13:35:52.179Z,75
2016-11-05T13:37:00.865Z,75
2016-11-05T13:38:09.558Z,70
2016-11-05T13:39:18.249Z,75
2016-11-05T13:40:26.973Z,70
2016-11-05T13:41:35.655Z,65
2016-11-05T13:42:44.347Z,65
2016-11-05T13:43:53.067Z,65
2016-11-05T13:45:01.761Z,65
2016-11-05T13:46:10.450Z,65
2016-11-05T13:47:19.137Z,60
2016-11-05T13:48:27.833Z,60
2016-11-05T13:49:36.527Z,60
2016-11-05T13:50:45.216Z,60
2016-11-05T13:51:53.907Z,60
2016-11-05T13:53:02.605Z,60
2016-11-05T13:54:11.296Z,60
2016-11-05T13:55:20.006Z,55
2016-11-05T13:56:28.695Z,55
2016-11-05T13:57:37.387Z,50
2016-11-05T13:58:46.108Z,50
2016-11-05T13:59:54.813Z,50
2016-11-05T14:01:03.522Z,50
2016-11-05T14:02:12.241Z,50
2016-11-05T14:03:20.937Z,45
2016-11-05T14:04:29.627Z,45
2016-11-05T14:05:38.314Z,45
2016-11-05T14:06:47.001Z,45
2016-11-05T14:07:55.686Z,45
2016-11-05T14:09:04.376Z,40
2016-11-05T14:10:13.073Z,40
2016-11-05T14:11:21.764Z,40
2016-11-05T14:12:30.457Z,40
2016-11-05T14:13:39.150Z,35
2016-11-05T14:14:47.839Z,35
2016-11-05T14:15:56.534Z,35
2016-11-05T14:17:05.224Z,35
2016-11-05T14:18:13.917Z,35
2016-11-05T14:19:22.608Z,30
2016-11-05T14:20:31.296Z,30
2016-11-05T14:21:39.983Z,30
2016-11-05T14:22:48.703Z,30
2016-11-05T14:23:57.395Z,30
2016-11-05T14:25:06.079Z,25
2016-11-05T14:26:14.775Z,25
2016-11-05T14:27:23.467Z,25
2016-11-05T14:28:32.158Z,25
2016-11-05T14:29:40.844Z,25
2016-11-05T14:30:49.532Z,25
2016-11-05T14:31:58.255Z,20
2016-11-05T14:33:06.944Z,20
2016-11-05T14:34:15.636Z,20
2016-11-05T14:35:24.329Z,20
2016-11-05T14:36:33.023Z,20
2016-11-05T14:37:41.758Z,20
2016-11-05T14:38:50.467Z,15
2016-11-05T14:39:59.154Z,15
2016-11-05T14:41:07.843Z,15
2016-11-05T14:42:16.530Z,15
2016-11-05T14:43:25.224Z,15
2016-11-05T14:44:33.908Z,15
2016-11-05T14:45:42.600Z,15
2016-11-05T14:46:51.290Z,15
2016-11-05T14:47:59.979Z,15
2016-11-05T14:49:08.665Z,15
2016-11-05T14:50:17.358Z,10
2016-11-05T14:51:26.048Z,10
2016-11-05T14:52:34.801Z,10
2016-11-05T14:53:44.106Z,10
2016-11-05T14:54:52.808Z,10
2016-11-05T14:56:01.505Z,10
2016-11-05T14:57:10.191Z,10
2016-11-05T14:58:18.885Z,10
2016-11-05T14:59:27.580Z,5
2016-11-05T15:00:36.326Z,5
2016-11-05T15:01:45.054Z,5
2016-11-05T15:02:53.754Z,5
2016-11-05T15:04:02.451Z,5
2016-11-05T15:05:11.140Z,5
2016-11-05T15:06:19.831Z,5
2016-11-05T15:07:28.519Z,5
2016-11-05T15:08:37.211Z,5
2016-11-05T15:09:45.904Z,5
2016-11-05T15:10:54.628Z,0
2016-11-05T15:12:03.319Z,0
2016-11-05T15:13:12.322Z,0
2016-11-05T15:14:21.011Z,0
2016-11-05T15:15:29.740Z,0
2016-11-05T15:16:38.457Z,0
2016-11-05T15:17:47.149Z,0
2016-11-05T15:18:55.875Z,0
2016-11-05T15:20:04.570Z,0
2016-11-05T15:21:13.261Z,0
2016-11-05T15:22:21.949Z,0
2016-11-05T15:23:30.644Z,0
2016-11-05T15:24:39.338Z,0
2016-11-05T15:25:48.026Z,0
2016-11-05T15:26:56.715Z,0
2016-11-05T15:28:06.041Z,0
2016-11-05T15:29:14.757Z,0
2016-11-05T15:30:23.448Z,0
2016-11-05T15:31:32.135Z,0
2016-11-05T15:32:40.825Z,0
2016-11-05T15:33:49.507Z,0
2016-11-05T15:34:58.194Z,0
2016-11-05T15:36:06.958Z,0
2016-11-05T15:37:15.645Z,0
2016-11-05T15:38:24.338Z,0
2016-11-05T15:39:33.028Z,0
2016-11-05T15:40:41.716Z,0
2016-11-05T15:41:50.405Z,0
2016-11-05T15:42:59.146Z,0
2016-11-05T15:44:07.838Z,0
2016-11-05T15:45:16.528Z,0
2016-11-05T15:46:25.218Z,0
2016-11-05T15:47:34.223Z,0
2016-11-05T15:48:42.913Z,0
2016-11-05T15:49:51.601Z,0
2016-11-05T15:51:00.289Z,0
2016-11-05T15:52:08.981Z,0
2016-11-05T15:53:17.675Z,0
2016-11-05T15:54:26.369Z,0
2016-11-05T15:55:35.134Z,0
2016-11-05T15:56:43.828Z,0
2016-11-05T15:57:52.517Z,0
2016-11-05T15:59:01.209Z,0
2016-11-05T16:00:09.896Z,0
2016-11-05T16:01:18.582Z,0
2016-11-05T16:02:27.271Z,0
2016-11-05T16:03:35.963Z,0
2016-11-05T16:04:44.654Z,0
2016-11-05T16:05:53.349Z,0
2016-11-05T16:07:02.034Z,0
2016-11-05T16:08:10.719Z,0
2016-11-05T16:09:19.406Z,0
2016-11-05T16:10:28.131Z,0
2016-11-05T16:11:36.872Z,0
2016-11-05T16:12:45.569Z,0
2016-11-05T16:13:54.261Z,0
2016-11-05T16:15:02.958Z,0
2016-11-05T16:16:11.660Z,0
2016-11-05T16:17:20.349Z,0
2016-11-05T16:18:29.044Z,0
2016-11-05T16:19:37.734Z,0
2016-11-05T16:20:46.422Z,0
2016-11-05T16:21:55.110Z,0
2016-11-05T16:23:04.129Z,0
2016-11-05T16:24:12.814Z,0
2016-11-05T16:25:21.504Z,0
2016-11-05T16:26:30.233Z,0
2016-11-05T16:27:38.965Z,0